Terminal Aerodrome Forecast
Issued by NWS

Current Version | Previous Version | Text Only | Print | Product List | Glossary On
Versions: 1 2 3 4 5 6 7 8 9 10 11 12 13 14 15 16 17 18 19 20 21 22 23 24 25 26 27 28 29 30 31 32 33 34 35 36
000
FTUS43 KDMX 200524
TAFFOD
TAF
KFOD 200524Z 2006/2106 20010KT P6SM VCTS FEW011CB BKN040 OVC150
      TEMPO 2006/2007 30025G40KT 1SM +TSRA OVC010CB
     FM201000 27006KT P6SM SCT060 BKN150
     FM201600 30009G15KT P6SM SCT050
     FM210000 30007KT P6SM SKC=

USA.gov is the U.S. government's official web portal to all federal, state and local government web resources and services.